sensor_id;sensor_type;location;lat;lon;timestamp;pressure;altitude;pressure_sealevel;temperature;humidity
19259;BME280;9763;48.780;9.212;2023-04-22T00:02:18;97721.81;;;17.02;49.23
19259;BME280;9763;48.780;9.212;2023-04-22T00:05:42;97717.84;;;16.98;49.66
19259;BME280;9763;48.780;9.212;2023-04-22T00:09:07;97712.88;;;16.95;49.45
19259;BME280;9763;48.780;9.212;2023-04-22T00:12:32;97715.00;;;16.91;49.58
19259;BME280;9763;48.780;9.212;2023-04-22T00:15:56;97710.88;;;16.88;49.37
19259;BME280;9763;48.780;9.212;2023-04-22T00:19:20;97712.00;;;16.86;49.69
19259;BME280;9763;48.780;9.212;2023-04-22T00:22:44;97711.19;;;16.85;49.42
19259;BME280;9763;48.780;9.212;2023-04-22T00:26:09;97713.81;;;16.85;49.74
19259;BME280;9763;48.780;9.212;2023-04-22T00:29:34;97707.03;;;16.83;49.25
19259;BME280;9763;48.780;9.212;2023-04-22T00:32:58;97710.81;;;16.80;49.42
19259;BME280;9763;48.780;9.212;2023-04-22T00:36:24;97709.97;;;16.80;49.90
19259;BME280;9763;48.780;9.212;2023-04-22T00:39:49;97711.78;;;16.79;49.78
19259;BME280;9763;48.780;9.212;2023-04-22T00:43:16;97694.13;;;16.72;49.69
19259;BME280;9763;48.780;9.212;2023-04-22T00:46:40;97705.88;;;16.77;49.96
19259;BME280;9763;48.780;9.212;2023-04-22T00:50:05;97715.75;;;16.75;49.46
19259;BME280;9763;48.780;9.212;2023-04-22T00:53:29;97713.41;;;16.72;49.99
19259;BME280;9763;48.780;9.212;2023-04-22T00:56:53;97713.56;;;16.71;49.85
19259;BME280;9763;48.780;9.212;2023-04-22T01:00:19;97713.84;;;16.68;49.65
19259;BME280;9763;48.780;9.212;2023-04-22T01:03:49;97714.34;;;16.63;49.68
19259;BME280;9763;48.780;9.212;2023-04-22T01:07:15;97713.78;;;16.60;49.83
19259;BME280;9763;48.780;9.212;2023-04-22T01:10:39;97708.66;;;16.58;50.27
19259;BME280;9763;48.780;9.212;2023-04-22T01:14:04;97710.47;;;16.57;49.98
19259;BME280;9763;48.780;9.212;2023-04-22T01:17:29;97707.84;;;16.57;50.19
19259;BME280;9763;48.780;9.212;2023-04-22T01:20:55;97708.66;;;16.58;50.08
19259;BME280;9763;48.780;9.212;2023-04-22T01:24:20;97711.59;;;16.55;50.10
19259;BME280;9763;48.780;9.212;2023-04-22T01:27:44;97715.06;;;16.55;50.39
19259;BME280;9763;48.780;9.212;2023-04-22T01:31:08;97708.97;;;16.55;50.40
19259;BME280;9763;48.780;9.212;2023-04-22T01:34:32;97711.94;;;16.52;49.94
19259;BME280;9763;48.780;9.212;2023-04-22T01:37:56;97719.16;;;16.50;50.36
19259;BME280;9763;48.780;9.212;2023-04-22T01:41:21;97710.72;;;16.46;50.83
19259;BME280;9763;48.780;9.212;2023-04-22T01:44:46;97709.38;;;16.42;50.35
19259;BME280;9763;48.780;9.212;2023-04-22T01:48:10;97709.69;;;16.39;50.36
19259;BME280;9763;48.780;9.212;2023-04-22T01:51:34;97718.72;;;16.37;50.26
19259;BME280;9763;48.780;9.212;2023-04-22T01:54:57;97726.41;;;16.30;51.07
19259;BME280;9763;48.780;9.212;2023-04-22T01:58:27;97711.91;;;16.26;50.92
19259;BME280;9763;48.780;9.212;2023-04-22T02:01:51;97716.34;;;16.26;50.65
19259;BME280;9763;48.780;9.212;2023-04-22T02:05:16;97718.97;;;16.26;50.68
19259;BME280;9763;48.780;9.212;2023-04-22T02:08:41;97721.91;;;16.23;50.77
19259;BME280;9763;48.780;9.212;2023-04-22T02:12:07;97720.72;;;16.17;50.75
19259;BME280;9763;48.780;9.212;2023-04-22T02:15:32;97723.78;;;16.12;51.44
19259;BME280;9763;48.780;9.212;2023-04-22T02:18:56;97731.84;;;16.11;51.68
19259;BME280;9763;48.780;9.212;2023-04-22T02:22:21;97730.03;;;16.11;51.32
19259;BME280;9763;48.780;9.212;2023-04-22T02:25:48;97731.16;;;16.09;51.45
19259;BME280;9763;48.780;9.212;2023-04-22T02:29:13;97731.97;;;16.09;51.07
19259;BME280;9763;48.780;9.212;2023-04-22T02:32:39;97741.00;;;16.07;51.29
19259;BME280;9763;48.780;9.212;2023-04-22T02:36:03;97737.72;;;16.05;51.53
19259;BME280;9763;48.780;9.212;2023-04-22T02:39:27;97736.22;;;16.02;51.27
19259;BME280;9763;48.780;9.212;2023-04-22T02:42:52;97739.28;;;15.98;51.73
19259;BME280;9763;48.780;9.212;2023-04-22T02:46:16;97736.28;;;15.93;51.75
19259;BME280;9763;48.780;9.212;2023-04-22T02:49:41;97741.84;;;15.90;51.64
19259;BME280;9763;48.780;9.212;2023-04-22T02:53:06;97741.16;;;15.88;51.75
19259;BME280;9763;48.780;9.212;2023-04-22T02:56:30;97738.81;;;15.84;51.52
19259;BME280;9763;48.780;9.212;2023-04-22T02:59:54;97743.41;;;15.82;51.60
19259;BME280;9763;48.780;9.212;2023-04-22T03:03:19;97741.91;;;15.80;51.99
19259;BME280;9763;48.780;9.212;2023-04-22T03:06:44;97733.91;;;15.72;52.03
19259;BME280;9763;48.780;9.212;2023-04-22T03:10:08;97736.13;;;15.76;52.16
19259;BME280;9763;48.780;9.212;2023-04-22T03:13:32;97728.50;;;15.73;52.26
19259;BME280;9763;48.780;9.212;2023-04-22T03:16:56;97730.91;;;15.67;51.87
19259;BME280;9763;48.780;9.212;2023-04-22T03:20:20;97731.63;;;15.59;52.30
19259;BME280;9763;48.780;9.212;2023-04-22T03:23:46;97734.00;;;15.53;52.19
19259;BME280;9763;48.780;9.212;2023-04-22T03:27:10;97736.56;;;15.44;52.45
19259;BME280;9763;48.780;9.212;2023-04-22T03:30:34;97731.31;;;15.35;52.36
19259;BME280;9763;48.780;9.212;2023-04-22T03:33:58;97727.78;;;15.26;52.38
19259;BME280;9763;48.780;9.212;2023-04-22T03:37:23;97740.22;;;15.24;52.67
19259;BME280;9763;48.780;9.212;2023-04-22T03:40:49;97743.84;;;15.23;53.03
19259;BME280;9763;48.780;9.212;2023-04-22T03:44:33;97742.03;;;15.24;52.66
19259;BME280;9763;48.780;9.212;2023-04-22T03:47:57;97745.50;;;15.24;52.76
19259;BME280;9763;48.780;9.212;2023-04-22T03:51:30;97747.28;;;15.24;52.80
19259;BME280;9763;48.780;9.212;2023-04-22T03:54:58;97744.81;;;15.22;52.70
19259;BME280;9763;48.780;9.212;2023-04-22T03:58:24;97748.56;;;15.20;52.69
19259;BME280;9763;48.780;9.212;2023-04-22T04:01:50;97745.41;;;15.16;52.55
19259;BME280;9763;48.780;9.212;2023-04-22T04:05:19;97748.16;;;15.14;52.51
19259;BME280;9763;48.780;9.212;2023-04-22T04:08:43;97744.03;;;15.12;52.86
19259;BME280;9763;48.780;9.212;2023-04-22T04:12:07;97753.03;;;15.09;52.70
19259;BME280;9763;48.780;9.212;2023-04-22T04:15:38;97746.28;;;15.07;53.12
19259;BME280;9763;48.780;9.212;2023-04-22T04:19:04;97741.16;;;15.05;53.11
19259;BME280;9763;48.780;9.212;2023-04-22T04:22:30;97740.31;;;15.05;53.24
19259;BME280;9763;48.780;9.212;2023-04-22T04:25:55;97739.34;;;15.06;52.94
19259;BME280;9763;48.780;9.212;2023-04-22T04:29:19;97738.66;;;15.04;53.04
19259;BME280;9763;48.780;9.212;2023-04-22T04:33:08;97741.56;;;15.01;52.73
19259;BME280;9763;48.780;9.212;2023-04-22T04:36:35;97740.22;;;14.97;53.22
19259;BME280;9763;48.780;9.212;2023-04-22T04:40:12;97740.78;;;14.91;53.26
19259;BME280;9763;48.780;9.212;2023-04-22T04:43:42;97735.94;;;14.86;53.29
19259;BME280;9763;48.780;9.212;2023-04-22T04:47:26;97737.31;;;14.90;53.41
19259;BME280;9763;48.780;9.212;2023-04-22T04:51:01;97733.31;;;14.96;53.25
19259;BME280;9763;48.780;9.212;2023-04-22T04:54:28;97738.81;;;15.02;53.03
19259;BME280;9763;48.780;9.212;2023-04-22T04:57:54;97728.28;;;15.02;53.06
19259;BME280;9763;48.780;9.212;2023-04-22T05:01:23;97728.00;;;15.05;53.07
19259;BME280;9763;48.780;9.212;2023-04-22T05:04:47;97731.19;;;15.09;53.19
19259;BME280;9763;48.780;9.212;2023-04-22T05:08:13;97740.56;;;15.11;52.98
19259;BME280;9763;48.780;9.212;2023-04-22T05:11:40;97732.25;;;15.16;53.33
19259;BME280;9763;48.780;9.212;2023-04-22T05:15:10;97733.63;;;15.20;53.19
19259;BME280;9763;48.780;9.212;2023-04-22T05:18:34;97734.16;;;15.24;53.09
19259;BME280;9763;48.780;9.212;2023-04-22T05:22:03;97723.34;;;15.27;53.47
19259;BME280;9763;48.780;9.212;2023-04-22T05:25:28;97724.59;;;15.32;53.21
19259;BME280;9763;48.780;9.212;2023-04-22T05:28:58;97729.38;;;15.37;53.06
19259;BME280;9763;48.780;9.212;2023-04-22T05:32:22;97736.69;;;15.43;53.56
19259;BME280;9763;48.780;9.212;2023-04-22T05:35:47;97743.16;;;15.48;53.11
19259;BME280;9763;48.780;9.212;2023-04-22T05:39:13;97739.56;;;15.49;53.21
19259;BME280;9763;48.780;9.212;2023-04-22T05:42:39;97746.19;;;15.54;53.19
19259;BME280;9763;48.780;9.212;2023-04-22T05:46:03;97749.91;;;15.61;53.13
19259;BME280;9763;48.780;9.212;2023-04-22T05:49:30;97746.84;;;15.65;53.35
19259;BME280;9763;48.780;9.212;2023-04-22T05:53:23;97750.25;;;15.75;53.72
19259;BME280;9763;48.780;9.212;2023-04-22T05:56:47;97748.91;;;15.89;53.73
19259;BME280;9763;48.780;9.212;2023-04-22T06:00:14;97749.16;;;16.13;53.84
19259;BME280;9763;48.780;9.212;2023-04-22T06:03:47;97753.69;;;16.47;53.01
19259;BME280;9763;48.780;9.212;2023-04-22T06:07:12;97757.75;;;16.77;53.14
19259;BME280;9763;48.780;9.212;2023-04-22T06:10:35;97749.34;;;17.07;53.67
19259;BME280;9763;48.780;9.212;2023-04-22T06:13:59;97748.28;;;17.60;53.62
19259;BME280;9763;48.780;9.212;2023-04-22T06:17:25;97749.13;;;18.35;53.91
19259;BME280;9763;48.780;9.212;2023-04-22T06:20:51;97747.28;;;18.92;53.02
19259;BME280;9763;48.780;9.212;2023-04-22T06:24:16;97746.81;;;19.36;52.66
19259;BME280;9763;48.780;9.212;2023-04-22T06:27:40;97743.25;;;19.68;52.16
19259;BME280;9763;48.780;9.212;2023-04-22T06:31:05;97741.63;;;19.90;51.71
19259;BME280;9763;48.780;9.212;2023-04-22T06:34:31;97748.63;;;20.05;51.17
19259;BME280;9763;48.780;9.212;2023-04-22T06:37:56;97752.91;;;20.14;51.48
19259;BME280;9763;48.780;9.212;2023-04-22T06:41:24;97758.97;;;20.23;50.65
19259;BME280;9763;48.780;9.212;2023-04-22T06:44:52;97749.13;;;20.32;50.44
19259;BME280;9763;48.780;9.212;2023-04-22T06:48:30;97757.69;;;20.42;50.51
19259;BME280;9763;48.780;9.212;2023-04-22T06:52:27;97748.56;;;20.44;50.77
19259;BME280;9763;48.780;9.212;2023-04-22T06:55:53;97751.84;;;20.46;50.67
19259;BME280;9763;48.780;9.212;2023-04-22T06:59:17;97758.00;;;20.47;50.18
19259;BME280;9763;48.780;9.212;2023-04-22T07:02:41;97752.16;;;20.52;50.43
19259;BME280;9763;48.780;9.212;2023-04-22T07:06:06;97757.75;;;20.57;49.79
19259;BME280;9763;48.780;9.212;2023-04-22T07:09:32;97750.91;;;20.62;50.10
19259;BME280;9763;48.780;9.212;2023-04-22T07:12:57;97749.47;;;20.74;49.78
19259;BME280;9763;48.780;9.212;2023-04-22T07:16:21;97748.03;;;21.01;49.47
19259;BME280;9763;48.780;9.212;2023-04-22T07:19:45;97753.75;;;21.28;49.18
19259;BME280;9763;48.780;9.212;2023-04-22T07:23:09;97745.69;;;21.50;49.24
19259;BME280;9763;48.780;9.212;2023-04-22T07:26:34;97738.53;;;21.66;49.46
19259;BME280;9763;48.780;9.212;2023-04-22T07:29:59;97731.91;;;21.76;49.27
19259;BME280;9763;48.780;9.212;2023-04-22T07:33:23;97733.81;;;21.82;48.73
19259;BME280;9763;48.780;9.212;2023-04-22T07:36:49;97727.56;;;21.90;49.04
19259;BME280;9763;48.780;9.212;2023-04-22T07:40:13;97722.41;;;22.03;48.51
19259;BME280;9763;48.780;9.212;2023-04-22T07:43:38;97719.44;;;22.34;48.27
19259;BME280;9763;48.780;9.212;2023-04-22T07:47:02;97720.09;;;22.64;48.03
19259;BME280;9763;48.780;9.212;2023-04-22T07:50:26;97732.56;;;22.85;48.05
19259;BME280;9763;48.780;9.212;2023-04-22T07:53:50;97726.56;;;23.04;48.25
19259;BME280;9763;48.780;9.212;2023-04-22T07:57:14;97729.78;;;23.27;47.58
19259;BME280;9763;48.780;9.212;2023-04-22T08:00:39;97725.94;;;23.43;47.20
19259;BME280;9763;48.780;9.212;2023-04-22T08:04:03;97727.94;;;23.62;47.11
19259;BME280;9763;48.780;9.212;2023-04-22T08:07:27;97738.66;;;23.76;47.39
19259;BME280;9763;48.780;9.212;2023-04-22T08:10:54;97741.38;;;23.95;47.01
19259;BME280;9763;48.780;9.212;2023-04-22T08:14:18;97746.78;;;24.28;46.49
19259;BME280;9763;48.780;9.212;2023-04-22T08:17:44;97740.69;;;24.61;46.50
19259;BME280;9763;48.780;9.212;2023-04-22T08:21:07;97738.81;;;24.81;46.38
19259;BME280;9763;48.780;9.212;2023-04-22T08:24:31;97737.59;;;24.90;45.98
19259;BME280;9763;48.780;9.212;2023-04-22T08:27:55;97734.28;;;24.88;45.56
19259;BME280;9763;48.780;9.212;2023-04-22T08:31:19;97733.09;;;24.84;46.01
19259;BME280;9763;48.780;9.212;2023-04-22T08:34:44;97731.25;;;24.98;45.24
19259;BME280;9763;48.780;9.212;2023-04-22T08:38:08;97734.69;;;25.89;45.65
19259;BME280;9763;48.780;9.212;2023-04-22T08:41:33;97727.03;;;27.48;44.82
19259;BME280;9763;48.780;9.212;2023-04-22T08:44:58;97717.81;;;29.69;42.70
19259;BME280;9763;48.780;9.212;2023-04-22T08:48:23;97717.91;;;31.31;41.10
19259;BME280;9763;48.780;9.212;2023-04-22T08:51:49;97710.47;;;32.63;39.96
19259;BME280;9763;48.780;9.212;2023-04-22T08:55:14;97705.69;;;33.54;38.82
19259;BME280;9763;48.780;9.212;2023-04-22T08:58:39;97707.03;;;34.44;37.95
19259;BME280;9763;48.780;9.212;2023-04-22T09:02:04;97705.91;;;35.36;36.42
19259;BME280;9763;48.780;9.212;2023-04-22T09:05:32;97695.91;;;36.35;35.37
19259;BME280;9763;48.780;9.212;2023-04-22T09:08:58;97688.34;;;37.24;34.51
19259;BME280;9763;48.780;9.212;2023-04-22T09:12:23;97682.44;;;37.83;33.69
19259;BME280;9763;48.780;9.212;2023-04-22T09:15:47;97677.28;;;38.57;32.87
19259;BME280;9763;48.780;9.212;2023-04-22T09:19:11;97677.03;;;39.18;31.78
19259;BME280;9763;48.780;9.212;2023-04-22T09:22:39;97679.88;;;39.54;30.53
19259;BME280;9763;48.780;9.212;2023-04-22T09:26:07;97677.72;;;39.38;30.27
19259;BME280;9763;48.780;9.212;2023-04-22T09:29:31;97672.28;;;38.45;30.43
19259;BME280;9763;48.780;9.212;2023-04-22T09:32:56;97674.19;;;37.46;31.21
19259;BME280;9763;48.780;9.212;2023-04-22T09:36:21;97668.91;;;37.07;30.95
19259;BME280;9763;48.780;9.212;2023-04-22T09:39:47;97671.13;;;37.05;30.71
19259;BME280;9763;48.780;9.212;2023-04-22T09:43:18;97671.59;;;37.36;29.88
19259;BME280;9763;48.780;9.212;2023-04-22T09:46:42;97667.31;;;38.15;29.25
19259;BME280;9763;48.780;9.212;2023-04-22T09:50:07;97671.03;;;38.38;29.00
19259;BME280;9763;48.780;9.212;2023-04-22T09:53:36;97666.38;;;37.82;29.14
19259;BME280;9763;48.780;9.212;2023-04-22T09:57:00;97659.34;;;38.00;28.41
19259;BME280;9763;48.780;9.212;2023-04-22T10:00:29;97664.78;;;38.37;28.08
19259;BME280;9763;48.780;9.212;2023-04-22T10:03:53;97658.44;;;38.74;27.69
19259;BME280;9763;48.780;9.212;2023-04-22T10:07:17;97654.28;;;39.37;27.27
19259;BME280;9763;48.780;9.212;2023-04-22T10:10:42;97645.22;;;39.91;26.65
19259;BME280;9763;48.780;9.212;2023-04-22T10:14:06;97641.34;;;39.92;25.81
19259;BME280;9763;48.780;9.212;2023-04-22T10:17:35;97635.50;;;40.43;25.74
19259;BME280;9763;48.780;9.212;2023-04-22T10:20:59;97630.69;;;41.11;25.05
19259;BME280;9763;48.780;9.212;2023-04-22T10:24:26;97625.84;;;41.47;24.74
19259;BME280;9763;48.780;9.212;2023-04-22T10:27:53;97633.59;;;41.54;23.69
19259;BME280;9763;48.780;9.212;2023-04-22T10:31:21;97616.56;;;41.74;24.07
19259;BME280;9763;48.780;9.212;2023-04-22T10:34:47;97626.53;;;41.70;23.25
19259;BME280;9763;48.780;9.212;2023-04-22T10:38:12;97621.47;;;41.46;23.90
19259;BME280;9763;48.780;9.212;2023-04-22T10:41:38;97619.09;;;41.53;23.41
19259;BME280;9763;48.780;9.212;2023-04-22T10:45:04;97618.94;;;41.67;23.49
19259;BME280;9763;48.780;9.212;2023-04-22T10:48:46;97608.78;;;41.67;22.45
19259;BME280;9763;48.780;9.212;2023-04-22T10:52:27;97585.41;;;41.61;22.18
19259;BME280;9763;48.780;9.212;2023-04-22T10:55:52;97594.06;;;41.38;22.54
19259;BME280;9763;48.780;9.212;2023-04-22T10:59:18;97602.78;;;41.40;22.29
19259;BME280;9763;48.780;9.212;2023-04-22T11:02:43;97598.25;;;40.95;21.87
19259;BME280;9763;48.780;9.212;2023-04-22T11:06:16;97582.78;;;40.91;21.51
19259;BME280;9763;48.780;9.212;2023-04-22T11:09:44;97594.34;;;40.79;21.46
19259;BME280;9763;48.780;9.212;2023-04-22T11:13:11;97574.06;;;40.80;21.43
19259;BME280;9763;48.780;9.212;2023-04-22T11:16:35;97594.19;;;40.84;21.29
19259;BME280;9763;48.780;9.212;2023-04-22T11:20:00;97595.16;;;40.80;20.87
19259;BME280;9763;48.780;9.212;2023-04-22T11:23:26;97597.69;;;40.45;21.35
19259;BME280;9763;48.780;9.212;2023-04-22T11:26:54;97593.19;;;40.27;21.33
19259;BME280;9763;48.780;9.212;2023-04-22T11:30:19;97589.94;;;40.47;21.27
19259;BME280;9763;48.780;9.212;2023-04-22T11:33:43;97585.25;;;40.39;20.79
19259;BME280;9763;48.780;9.212;2023-04-22T11:37:10;97583.81;;;40.42;20.04
19259;BME280;9763;48.780;9.212;2023-04-22T11:40:37;97585.72;;;40.33;19.98
19259;BME280;9763;48.780;9.212;2023-04-22T11:44:07;97575.69;;;40.06;20.25
19259;BME280;9763;48.780;9.212;2023-04-22T11:47:32;97568.28;;;40.28;19.91
19259;BME280;9763;48.780;9.212;2023-04-22T11:51:10;97576.53;;;39.92;20.30
19259;BME280;9763;48.780;9.212;2023-04-22T11:54:35;97577.41;;;40.02;20.12
19259;BME280;9763;48.780;9.212;2023-04-22T11:58:03;97583.56;;;40.07;20.07
19259;BME280;9763;48.780;9.212;2023-04-22T12:01:30;97576.31;;;39.67;18.87
19259;BME280;9763;48.780;9.212;2023-04-22T12:04:57;97580.25;;;38.97;19.56
19259;BME280;9763;48.780;9.212;2023-04-22T12:08:23;97575.88;;;37.66;20.77
19259;BME280;9763;48.780;9.212;2023-04-22T12:11:47;97587.13;;;36.93;20.84
19259;BME280;9763;48.780;9.212;2023-04-22T12:15:13;97573.34;;;36.85;20.96
19259;BME280;9763;48.780;9.212;2023-04-22T12:18:46;97579.41;;;36.19;21.35
19259;BME280;9763;48.780;9.212;2023-04-22T12:22:11;97574.66;;;35.02;21.50
19259;BME280;9763;48.780;9.212;2023-04-22T12:25:34;97591.25;;;33.94;22.28
19259;BME280;9763;48.780;9.212;2023-04-22T12:28:59;97580.09;;;32.87;22.95
19259;BME280;9763;48.780;9.212;2023-04-22T12:32:25;97582.41;;;32.00;23.49
19259;BME280;9763;48.780;9.212;2023-04-22T12:35:50;97574.38;;;31.29;23.33
19259;BME280;9763;48.780;9.212;2023-04-22T12:39:14;97570.56;;;31.03;24.04
19259;BME280;9763;48.780;9.212;2023-04-22T12:42:38;97576.63;;;30.94;23.62
19259;BME280;9763;48.780;9.212;2023-04-22T12:46:02;97585.03;;;30.97;24.09
19259;BME280;9763;48.780;9.212;2023-04-22T12:49:26;97590.75;;;30.79;23.93
19259;BME280;9763;48.780;9.212;2023-04-22T12:52:51;97591.75;;;30.56;24.20
19259;BME280;9763;48.780;9.212;2023-04-22T12:56:16;97593.88;;;30.37;24.54
19259;BME280;9763;48.780;9.212;2023-04-22T12:59:40;97585.63;;;30.11;25.18
19259;BME280;9763;48.780;9.212;2023-04-22T13:03:04;97593.06;;;30.03;25.24
19259;BME280;9763;48.780;9.212;2023-04-22T13:06:28;97588.97;;;30.01;25.45
19259;BME280;9763;48.780;9.212;2023-04-22T13:09:54;97594.25;;;29.96;25.29
19259;BME280;9763;48.780;9.212;2023-04-22T13:13:18;97555.31;;;29.70;25.61
19259;BME280;9763;48.780;9.212;2023-04-22T13:16:42;97586.72;;;29.81;25.25
19259;BME280;9763;48.780;9.212;2023-04-22T13:20:06;97584.91;;;29.70;26.03
19259;BME280;9763;48.780;9.212;2023-04-22T13:23:33;97587.81;;;29.52;26.09
19259;BME280;9763;48.780;9.212;2023-04-22T13:26:59;97578.59;;;29.36;26.16
19259;BME280;9763;48.780;9.212;2023-04-22T13:30:23;97577.38;;;29.15;26.17
19259;BME280;9763;48.780;9.212;2023-04-22T13:33:47;97569.63;;;28.90;26.13
19259;BME280;9763;48.780;9.212;2023-04-22T13:37:11;97574.19;;;28.66;25.59
19259;BME280;9763;48.780;9.212;2023-04-22T13:40:36;97573.03;;;28.39;25.54
19259;BME280;9763;48.780;9.212;2023-04-22T13:44:01;97574.97;;;28.09;26.18
19259;BME280;9763;48.780;9.212;2023-04-22T13:47:26;97574.13;;;27.85;25.75
19259;BME280;9763;48.780;9.212;2023-04-22T13:50:49;97568.84;;;27.78;26.16
19259;BME280;9763;48.780;9.212;2023-04-22T13:54:13;97570.47;;;27.79;26.60
19259;BME280;9763;48.780;9.212;2023-04-22T13:57:37;97570.16;;;27.87;26.30
19259;BME280;9763;48.780;9.212;2023-04-22T14:01:02;97574.94;;;27.85;26.91
19259;BME280;9763;48.780;9.212;2023-04-22T14:04:26;97569.56;;;27.85;27.07
19259;BME280;9763;48.780;9.212;2023-04-22T14:07:50;97568.38;;;27.81;27.56
19259;BME280;9763;48.780;9.212;2023-04-22T14:11:14;97573.06;;;27.74;27.92
19259;BME280;9763;48.780;9.212;2023-04-22T14:14:38;97562.19;;;27.69;28.22
19259;BME280;9763;48.780;9.212;2023-04-22T14:18:03;97562.88;;;27.65;27.89
19259;BME280;9763;48.780;9.212;2023-04-22T14:21:27;97569.38;;;27.57;27.91
19259;BME280;9763;48.780;9.212;2023-04-22T14:24:52;97566.16;;;27.48;27.52
19259;BME280;9763;48.780;9.212;2023-04-22T14:28:17;97567.88;;;27.43;27.35
19259;BME280;9763;48.780;9.212;2023-04-22T14:31:41;97567.78;;;27.38;27.37
19259;BME280;9763;48.780;9.212;2023-04-22T14:35:06;97564.72;;;27.34;27.47
19259;BME280;9763;48.780;9.212;2023-04-22T14:38:30;97566.44;;;27.29;27.93
19259;BME280;9763;48.780;9.212;2023-04-22T14:41:54;97559.41;;;27.16;28.23
19259;BME280;9763;48.780;9.212;2023-04-22T14:45:20;97561.66;;;27.01;27.78
19259;BME280;9763;48.780;9.212;2023-04-22T14:48:44;97559.31;;;26.86;27.96
19259;BME280;9763;48.780;9.212;2023-04-22T14:52:09;97560.66;;;26.77;28.14
19259;BME280;9763;48.780;9.212;2023-04-22T14:55:34;97565.13;;;26.65;27.93
19259;BME280;9763;48.780;9.212;2023-04-22T14:58:58;97567.50;;;26.54;28.47
19259;BME280;9763;48.780;9.212;2023-04-22T15:02:22;97557.75;;;26.60;28.75
19259;BME280;9763;48.780;9.212;2023-04-22T15:05:47;97552.69;;;26.70;28.67
19259;BME280;9763;48.780;9.212;2023-04-22T15:09:12;97562.31;;;26.78;28.27
19259;BME280;9763;48.780;9.212;2023-04-22T15:12:36;97562.91;;;26.80;28.90
19259;BME280;9763;48.780;9.212;2023-04-22T15:16:00;97561.09;;;26.74;28.70
19259;BME280;9763;48.780;9.212;2023-04-22T15:19:24;97567.19;;;26.63;28.38
19259;BME280;9763;48.780;9.212;2023-04-22T15:22:48;97570.91;;;26.62;29.06
19259;BME280;9763;48.780;9.212;2023-04-22T15:26:14;97575.06;;;26.58;29.18
19259;BME280;9763;48.780;9.212;2023-04-22T15:29:38;97573.28;;;26.51;28.74
19259;BME280;9763;48.780;9.212;2023-04-22T15:33:06;97575.16;;;26.51;28.97
19259;BME280;9763;48.780;9.212;2023-04-22T15:36:30;97574.34;;;26.50;29.27
19259;BME280;9763;48.780;9.212;2023-04-22T15:39:54;97578.47;;;26.46;28.78
19259;BME280;9763;48.780;9.212;2023-04-22T15:43:20;97573.00;;;26.41;29.35
19259;BME280;9763;48.780;9.212;2023-04-22T15:46:44;97568.50;;;26.35;29.10
19259;BME280;9763;48.780;9.212;2023-04-22T15:50:09;97566.28;;;26.32;29.20
19259;BME280;9763;48.780;9.212;2023-04-22T15:53:33;97570.84;;;26.25;29.38
19259;BME280;9763;48.780;9.212;2023-04-22T15:56:57;97573.59;;;26.18;29.79
19259;BME280;9763;48.780;9.212;2023-04-22T16:00:22;97574.06;;;26.09;29.89
19259;BME280;9763;48.780;9.212;2023-04-22T16:03:47;97573.72;;;25.99;29.58
19259;BME280;9763;48.780;9.212;2023-04-22T16:07:11;97577.91;;;25.95;29.69
19259;BME280;9763;48.780;9.212;2023-04-22T16:10:35;97576.69;;;25.91;30.06
19259;BME280;9763;48.780;9.212;2023-04-22T16:13:59;97577.31;;;25.86;29.97
19259;BME280;9763;48.780;9.212;2023-04-22T16:17:24;97584.59;;;25.79;29.73
19259;BME280;9763;48.780;9.212;2023-04-22T16:20:48;97583.00;;;25.71;30.48
19259;BME280;9763;48.780;9.212;2023-04-22T16:24:12;97585.09;;;25.63;30.21
19259;BME280;9763;48.780;9.212;2023-04-22T16:27:37;97584.50;;;25.54;29.90
19259;BME280;9763;48.780;9.212;2023-04-22T16:31:00;97592.78;;;25.46;30.20
19259;BME280;9763;48.780;9.212;2023-04-22T16:34:26;97590.13;;;25.39;30.48
19259;BME280;9763;48.780;9.212;2023-04-22T16:37:50;97589.56;;;25.31;30.33
19259;BME280;9763;48.780;9.212;2023-04-22T16:41:14;97587.97;;;25.23;31.07
19259;BME280;9763;48.780;9.212;2023-04-22T16:44:37;97588.00;;;25.17;30.87
19259;BME280;9763;48.780;9.212;2023-04-22T16:48:01;97585.38;;;25.10;30.76
19259;BME280;9763;48.780;9.212;2023-04-22T16:51:27;97581.25;;;25.01;30.60
19259;BME280;9763;48.780;9.212;2023-04-22T16:54:50;97577.81;;;24.94;31.12
19259;BME280;9763;48.780;9.212;2023-04-22T16:58:14;97582.34;;;24.87;31.28
19259;BME280;9763;48.780;9.212;2023-04-22T17:01:38;97580.69;;;24.79;31.06
19259;BME280;9763;48.780;9.212;2023-04-22T17:05:03;97575.59;;;24.71;30.93
19259;BME280;9763;48.780;9.212;2023-04-22T17:08:28;97580.94;;;24.64;31.29
19259;BME280;9763;48.780;9.212;2023-04-22T17:11:51;97589.78;;;24.58;31.31
19259;BME280;9763;48.780;9.212;2023-04-22T17:15:15;97590.84;;;24.51;31.00
19259;BME280;9763;48.780;9.212;2023-04-22T17:18:39;97591.66;;;24.45;31.78
19259;BME280;9763;48.780;9.212;2023-04-22T17:22:03;97590.88;;;24.37;31.08
19259;BME280;9763;48.780;9.212;2023-04-22T17:25:28;97590.22;;;24.29;31.30
19259;BME280;9763;48.780;9.212;2023-04-22T17:28:52;97595.75;;;24.21;31.39
19259;BME280;9763;48.780;9.212;2023-04-22T17:32:16;97597.41;;;24.09;31.32
19259;BME280;9763;48.780;9.212;2023-04-22T17:35:40;97602.31;;;24.05;31.57
19259;BME280;9763;48.780;9.212;2023-04-22T17:39:04;97597.41;;;23.95;31.57
19259;BME280;9763;48.780;9.212;2023-04-22T17:42:29;97603.13;;;23.86;32.20
19259;BME280;9763;48.780;9.212;2023-04-22T17:46:07;97597.78;;;23.79;32.53
19259;BME280;9763;48.780;9.212;2023-04-22T17:49:31;97598.59;;;23.73;32.10
19259;BME280;9763;48.780;9.212;2023-04-22T17:52:54;97606.59;;;23.66;32.73
19259;BME280;9763;48.780;9.212;2023-04-22T17:56:18;97609.88;;;23.62;32.34
19259;BME280;9763;48.780;9.212;2023-04-22T17:59:43;97614.75;;;23.58;32.75
19259;BME280;9763;48.780;9.212;2023-04-22T18:03:07;97613.53;;;23.54;32.20
19259;BME280;9763;48.780;9.212;2023-04-22T18:06:31;97628.28;;;23.50;32.84
19259;BME280;9763;48.780;9.212;2023-04-22T18:09:55;97630.06;;;23.43;32.85
19259;BME280;9763;48.780;9.212;2023-04-22T18:13:19;97638.22;;;23.35;32.75
19259;BME280;9763;48.780;9.212;2023-04-22T18:16:44;97639.25;;;23.27;32.80
19259;BME280;9763;48.780;9.212;2023-04-22T18:20:08;97656.19;;;23.20;33.28
19259;BME280;9763;48.780;9.212;2023-04-22T18:23:40;97667.59;;;23.07;34.17